sensor_id;sensor_type;location;lat;lon;timestamp;P1;durP1;ratioP1;P2;durP2;ratioP2
62024;SDS011;47978;49.118;12.146;2024-03-23T00:54:23;23.23;;;12.40;;
62024;SDS011;47978;49.118;12.146;2024-03-23T00:58:23;24.15;;;12.60;;
62024;SDS011;47978;49.118;12.146;2024-03-23T01:02:24;29.10;;;13.52;;
62024;SDS011;47978;49.118;12.146;2024-03-23T01:06:25;24.42;;;13.35;;
62024;SDS011;47978;49.118;12.146;2024-03-23T01:10:27;23.33;;;12.55;;
62024;SDS011;47978;49.118;12.146;2024-03-23T01:14:27;25.17;;;12.52;;
62024;SDS011;47978;49.118;12.146;2024-03-23T01:18:28;18.98;;;11.30;;
62024;SDS011;47978;49.118;12.146;2024-03-23T01:22:28;25.83;;;12.73;;
62024;SDS011;47978;49.118;12.146;2024-03-23T01:26:30;21.60;;;10.95;;
62024;SDS011;47978;49.118;12.146;2024-03-23T01:30:31;18.05;;;11.05;;
62024;SDS011;47978;49.118;12.146;2024-03-23T01:34:31;18.27;;;10.90;;
62024;SDS011;47978;49.118;12.146;2024-03-23T01:38:32;20.98;;;11.93;;
62024;SDS011;47978;49.118;12.146;2024-03-23T01:42:34;19.77;;;9.93;;
62024;SDS011;47978;49.118;12.146;2024-03-23T01:46:35;27.35;;;12.70;;
62024;SDS011;47978;49.118;12.146;2024-03-23T01:50:36;21.08;;;13.90;;
62024;SDS011;47978;49.118;12.146;2024-03-23T01:54:37;25.52;;;12.43;;
62024;SDS011;47978;49.118;12.146;2024-03-23T01:58:40;23.20;;;11.98;;
62024;SDS011;47978;49.118;12.146;2024-03-23T02:02:42;22.85;;;13.07;;
62024;SDS011;47978;49.118;12.146;2024-03-23T02:06:43;22.70;;;12.52;;
62024;SDS011;47978;49.118;12.146;2024-03-23T02:10:44;26.13;;;13.57;;
62024;SDS011;47978;49.118;12.146;2024-03-23T02:14:46;23.70;;;12.38;;
62024;SDS011;47978;49.118;12.146;2024-03-23T02:18:46;26.23;;;14.25;;
62024;SDS011;47978;49.118;12.146;2024-03-23T02:22:51;26.27;;;14.55;;
62024;SDS011;47978;49.118;12.146;2024-03-23T02:26:53;23.95;;;14.68;;
62024;SDS011;47978;49.118;12.146;2024-03-23T02:30:53;27.65;;;14.45;;
62024;SDS011;47978;49.118;12.146;2024-03-23T02:34:54;27.85;;;15.02;;
62024;SDS011;47978;49.118;12.146;2024-03-23T02:38:56;32.83;;;16.00;;
62024;SDS011;47978;49.118;12.146;2024-03-23T02:48:00;33.15;;;16.25;;
62024;SDS011;47978;49.118;12.146;2024-03-23T02:52:00;33.03;;;18.00;;
62024;SDS011;47978;49.118;12.146;2024-03-23T02:56:02;37.78;;;18.98;;
62024;SDS011;47978;49.118;12.146;2024-03-23T03:00:04;32.47;;;17.00;;
62024;SDS011;47978;49.118;12.146;2024-03-23T03:04:05;37.72;;;19.38;;
62024;SDS011;47978;49.118;12.146;2024-03-23T03:08:06;33.60;;;17.83;;
62024;SDS011;47978;49.118;12.146;2024-03-23T03:12:08;32.78;;;17.33;;
62024;SDS011;47978;49.118;12.146;2024-03-23T03:16:09;36.72;;;18.85;;
62024;SDS011;47978;49.118;12.146;2024-03-23T03:20:10;35.60;;;17.58;;
62024;SDS011;47978;49.118;12.146;2024-03-23T03:24:10;35.08;;;17.63;;
62024;SDS011;47978;49.118;12.146;2024-03-23T03:28:12;34.97;;;18.45;;
62024;SDS011;47978;49.118;12.146;2024-03-23T03:32:13;39.33;;;18.77;;
62024;SDS011;47978;49.118;12.146;2024-03-23T03:36:13;30.60;;;17.77;;
62024;SDS011;47978;49.118;12.146;2024-03-23T03:40:14;33.95;;;19.60;;
62024;SDS011;47978;49.118;12.146;2024-03-23T03:44:16;39.22;;;19.30;;
62024;SDS011;47978;49.118;12.146;2024-03-23T03:48:17;31.67;;;15.93;;
62024;SDS011;47978;49.118;12.146;2024-03-23T03:52:17;30.65;;;17.67;;
62024;SDS011;47978;49.118;12.146;2024-03-23T03:56:18;31.73;;;17.25;;
62024;SDS011;47978;49.118;12.146;2024-03-23T04:00:20;32.08;;;16.48;;
62024;SDS011;47978;49.118;12.146;2024-03-23T04:04:20;30.65;;;16.95;;
62024;SDS011;47978;49.118;12.146;2024-03-23T04:08:21;27.40;;;15.75;;
62024;SDS011;47978;49.118;12.146;2024-03-23T04:12:22;32.53;;;16.98;;
62024;SDS011;47978;49.118;12.146;2024-03-23T04:16:28;26.05;;;15.50;;
62024;SDS011;47978;49.118;12.146;2024-03-23T04:20:29;26.40;;;14.95;;
62024;SDS011;47978;49.118;12.146;2024-03-23T04:24:30;25.52;;;15.05;;
62024;SDS011;47978;49.118;12.146;2024-03-23T04:28:30;25.08;;;13.95;;
62024;SDS011;47978;49.118;12.146;2024-03-23T04:32:32;26.10;;;15.35;;
62024;SDS011;47978;49.118;12.146;2024-03-23T04:36:33;26.90;;;14.23;;
62024;SDS011;47978;49.118;12.146;2024-03-23T04:40:33;23.25;;;13.98;;
62024;SDS011;47978;49.118;12.146;2024-03-23T04:44:34;21.80;;;13.68;;
62024;SDS011;47978;49.118;12.146;2024-03-23T04:48:36;24.08;;;13.00;;
62024;SDS011;47978;49.118;12.146;2024-03-23T04:52:36;18.85;;;11.95;;
62024;SDS011;47978;49.118;12.146;2024-03-23T04:56:37;20.98;;;12.70;;
62024;SDS011;47978;49.118;12.146;2024-03-23T05:00:37;19.60;;;11.27;;
62024;SDS011;47978;49.118;12.146;2024-03-23T05:04:39;21.08;;;12.15;;
62024;SDS011;47978;49.118;12.146;2024-03-23T05:08:40;17.65;;;10.73;;
62024;SDS011;47978;49.118;12.146;2024-03-23T05:12:40;19.45;;;11.57;;
62024;SDS011;47978;49.118;12.146;2024-03-23T05:16:41;18.02;;;10.45;;
62024;SDS011;47978;49.118;12.146;2024-03-23T05:20:43;16.35;;;10.68;;
62024;SDS011;47978;49.118;12.146;2024-03-23T05:24:44;14.18;;;9.38;;
62024;SDS011;47978;49.118;12.146;2024-03-23T05:28:45;13.27;;;9.73;;
62024;SDS011;47978;49.118;12.146;2024-03-23T05:32:46;16.92;;;9.63;;
62024;SDS011;47978;49.118;12.146;2024-03-23T05:36:47;14.68;;;9.70;;
62024;SDS011;47978;49.118;12.146;2024-03-23T05:40:52;16.50;;;9.73;;
62024;SDS011;47978;49.118;12.146;2024-03-23T05:44:53;13.05;;;8.52;;
62024;SDS011;47978;49.118;12.146;2024-03-23T05:48:54;13.65;;;8.43;;
62024;SDS011;47978;49.118;12.146;2024-03-23T05:53:03;17.77;;;8.20;;
62024;SDS011;47978;49.118;12.146;2024-03-23T05:57:04;11.98;;;7.63;;
62024;SDS011;47978;49.118;12.146;2024-03-23T06:01:05;11.68;;;8.48;;
62024;SDS011;47978;49.118;12.146;2024-03-23T06:05:05;12.48;;;8.05;;
62024;SDS011;47978;49.118;12.146;2024-03-23T06:09:08;13.85;;;7.97;;
62024;SDS011;47978;49.118;12.146;2024-03-23T06:13:08;16.17;;;7.75;;
62024;SDS011;47978;49.118;12.146;2024-03-23T06:17:09;10.88;;;6.88;;
62024;SDS011;47978;49.118;12.146;2024-03-23T06:21:12;13.25;;;8.25;;
62024;SDS011;47978;49.118;12.146;2024-03-23T06:25:15;10.60;;;7.03;;
62024;SDS011;47978;49.118;12.146;2024-03-23T06:29:15;10.48;;;7.05;;
62024;SDS011;47978;49.118;12.146;2024-03-23T06:33:16;14.18;;;6.47;;
62024;SDS011;47978;49.118;12.146;2024-03-23T06:37:16;15.98;;;6.50;;
62024;SDS011;47978;49.118;12.146;2024-03-23T06:41:18;9.50;;;6.28;;
62024;SDS011;47978;49.118;12.146;2024-03-23T06:45:19;13.63;;;6.55;;
62024;SDS011;47978;49.118;12.146;2024-03-23T06:49:20;9.40;;;5.80;;
62024;SDS011;47978;49.118;12.146;2024-03-23T06:53:20;9.35;;;5.88;;
62024;SDS011;47978;49.118;12.146;2024-03-23T06:57:22;11.40;;;6.30;;
62024;SDS011;47978;49.118;12.146;2024-03-23T07:01:23;8.68;;;5.60;;
62024;SDS011;47978;49.118;12.146;2024-03-23T07:05:23;10.70;;;5.90;;
62024;SDS011;47978;49.118;12.146;2024-03-23T07:09:24;8.32;;;5.38;;
62024;SDS011;47978;49.118;12.146;2024-03-23T07:13:26;11.98;;;6.72;;
62024;SDS011;47978;49.118;12.146;2024-03-23T07:17:26;12.88;;;6.45;;
62024;SDS011;47978;49.118;12.146;2024-03-23T07:21:27;15.63;;;6.47;;
62024;SDS011;47978;49.118;12.146;2024-03-23T07:25:27;9.48;;;5.93;;
62024;SDS011;47978;49.118;12.146;2024-03-23T07:29:29;11.55;;;6.45;;
62024;SDS011;47978;49.118;12.146;2024-03-23T07:33:30;13.82;;;8.43;;
62024;SDS011;47978;49.118;12.146;2024-03-23T07:37:31;15.55;;;8.50;;
62024;SDS011;47978;49.118;12.146;2024-03-23T07:41:32;16.38;;;7.35;;
62024;SDS011;47978;49.118;12.146;2024-03-23T07:45:34;15.00;;;8.95;;
62024;SDS011;47978;49.118;12.146;2024-03-23T07:49:34;15.35;;;9.13;;
62024;SDS011;47978;49.118;12.146;2024-03-23T07:53:35;18.95;;;11.15;;
62024;SDS011;47978;49.118;12.146;2024-03-23T07:57:37;15.63;;;8.60;;
62024;SDS011;47978;49.118;12.146;2024-03-23T08:01:38;10.85;;;6.07;;
62024;SDS011;47978;49.118;12.146;2024-03-23T08:05:39;11.18;;;6.28;;
62024;SDS011;47978;49.118;12.146;2024-03-23T08:09:40;5.80;;;4.03;;
62024;SDS011;47978;49.118;12.146;2024-03-23T08:13:41;7.28;;;3.67;;
62024;SDS011;47978;49.118;12.146;2024-03-23T08:17:43;8.25;;;4.43;;
62024;SDS011;47978;49.118;12.146;2024-03-23T08:21:44;5.85;;;3.72;;
62024;SDS011;47978;49.118;12.146;2024-03-23T08:25:45;5.57;;;3.90;;
62024;SDS011;47978;49.118;12.146;2024-03-23T08:29:45;6.53;;;3.50;;
62024;SDS011;47978;49.118;12.146;2024-03-23T08:33:47;13.60;;;6.45;;
62024;SDS011;47978;49.118;12.146;2024-03-23T08:37:48;8.13;;;4.65;;
62024;SDS011;47978;49.118;12.146;2024-03-23T08:41:48;9.05;;;5.18;;
62024;SDS011;47978;49.118;12.146;2024-03-23T08:45:51;9.68;;;5.90;;
62024;SDS011;47978;49.118;12.146;2024-03-23T08:49:53;12.98;;;6.25;;
62024;SDS011;47978;49.118;12.146;2024-03-23T08:53:53;7.63;;;4.82;;
62024;SDS011;47978;49.118;12.146;2024-03-23T08:57:54;12.65;;;6.07;;
62024;SDS011;47978;49.118;12.146;2024-03-23T09:01:54;13.30;;;7.32;;
62024;SDS011;47978;49.118;12.146;2024-03-23T09:05:57;12.45;;;6.45;;
62024;SDS011;47978;49.118;12.146;2024-03-23T09:09:58;10.45;;;5.93;;
62024;SDS011;47978;49.118;12.146;2024-03-23T09:13:58;10.40;;;6.68;;
62024;SDS011;47978;49.118;12.146;2024-03-23T09:17:59;9.68;;;5.78;;
62024;SDS011;47978;49.118;12.146;2024-03-23T09:22:01;9.82;;;6.60;;
62024;SDS011;47978;49.118;12.146;2024-03-23T09:26:02;6.47;;;4.25;;
62024;SDS011;47978;49.118;12.146;2024-03-23T09:30:03;10.60;;;5.07;;
62024;SDS011;47978;49.118;12.146;2024-03-23T09:34:04;6.90;;;3.78;;
62024;SDS011;47978;49.118;12.146;2024-03-23T09:38:06;11.07;;;5.38;;
62024;SDS011;47978;49.118;12.146;2024-03-23T09:42:07;4.83;;;3.37;;
62024;SDS011;47978;49.118;12.146;2024-03-23T09:46:08;6.38;;;3.45;;
62024;SDS011;47978;49.118;12.146;2024-03-23T09:50:09;5.13;;;3.60;;
62024;SDS011;47978;49.118;12.146;2024-03-23T09:54:11;10.13;;;5.20;;
62024;SDS011;47978;49.118;12.146;2024-03-23T09:58:12;7.47;;;4.70;;
62024;SDS011;47978;49.118;12.146;2024-03-23T10:02:13;8.45;;;5.22;;
62024;SDS011;47978;49.118;12.146;2024-03-23T10:06:14;3.25;;;2.58;;
62024;SDS011;47978;49.118;12.146;2024-03-23T10:10:23;6.63;;;3.70;;
62024;SDS011;47978;49.118;12.146;2024-03-23T10:14:28;5.75;;;3.92;;
62024;SDS011;47978;49.118;12.146;2024-03-23T10:18:29;4.47;;;3.33;;
62024;SDS011;47978;49.118;12.146;2024-03-23T10:22:30;4.32;;;3.08;;
62024;SDS011;47978;49.118;12.146;2024-03-23T10:26:38;6.03;;;3.03;;
62024;SDS011;47978;49.118;12.146;2024-03-23T10:30:39;2.97;;;2.53;;
62024;SDS011;47978;49.118;12.146;2024-03-23T10:34:40;3.20;;;2.47;;
62024;SDS011;47978;49.118;12.146;2024-03-23T10:38:40;3.13;;;2.55;;
62024;SDS011;47978;49.118;12.146;2024-03-23T10:42:43;6.22;;;2.25;;
62024;SDS011;47978;49.118;12.146;2024-03-23T10:46:44;3.38;;;2.50;;
62024;SDS011;47978;49.118;12.146;2024-03-23T10:50:45;3.58;;;2.30;;
62024;SDS011;47978;49.118;12.146;2024-03-23T10:54:46;3.17;;;2.78;;
62024;SDS011;47978;49.118;12.146;2024-03-23T10:58:51;5.82;;;4.03;;
62024;SDS011;47978;49.118;12.146;2024-03-23T11:02:52;3.20;;;2.65;;
62024;SDS011;47978;49.118;12.146;2024-03-23T11:06:52;4.03;;;3.00;;
62024;SDS011;47978;49.118;12.146;2024-03-23T11:10:53;2.85;;;2.47;;
62024;SDS011;47978;49.118;12.146;2024-03-23T11:14:55;6.55;;;3.15;;
62024;SDS011;47978;49.118;12.146;2024-03-23T11:23:33;1.83;;;1.48;;
62024;SDS011;47978;49.118;12.146;2024-03-23T11:27:34;3.40;;;2.08;;
62024;SDS011;47978;49.118;12.146;2024-03-23T11:31:37;2.75;;;1.30;;
62024;SDS011;47978;49.118;12.146;2024-03-23T11:35:38;2.42;;;1.67;;
62024;SDS011;47978;49.118;12.146;2024-03-23T11:39:39;2.80;;;1.73;;
62024;SDS011;47978;49.118;12.146;2024-03-23T11:43:40;4.30;;;1.85;;
62024;SDS011;47978;49.118;12.146;2024-03-23T11:47:41;2.33;;;1.70;;
62024;SDS011;47978;49.118;12.146;2024-03-23T11:51:42;1.85;;;1.38;;
62024;SDS011;47978;49.118;12.146;2024-03-23T11:55:47;2.03;;;1.50;;
62024;SDS011;47978;49.118;12.146;2024-03-23T11:59:48;2.30;;;1.52;;
62024;SDS011;47978;49.118;12.146;2024-03-23T12:03:50;1.60;;;1.23;;
62024;SDS011;47978;49.118;12.146;2024-03-23T12:07:51;3.42;;;1.90;;
62024;SDS011;47978;49.118;12.146;2024-03-23T12:11:51;2.80;;;2.10;;
62024;SDS011;47978;49.118;12.146;2024-03-23T12:15:52;5.10;;;2.10;;
62024;SDS011;47978;49.118;12.146;2024-03-23T12:19:54;2.88;;;1.98;;
62024;SDS011;47978;49.118;12.146;2024-03-23T12:23:54;2.47;;;1.95;;
62024;SDS011;47978;49.118;12.146;2024-03-23T12:27:57;2.78;;;1.77;;
62024;SDS011;47978;49.118;12.146;2024-03-23T12:31:59;5.07;;;2.83;;
62024;SDS011;47978;49.118;12.146;2024-03-23T12:36:01;4.95;;;2.42;;
62024;SDS011;47978;49.118;12.146;2024-03-23T12:40:02;3.65;;;2.33;;
62024;SDS011;47978;49.118;12.146;2024-03-23T12:44:03;2.55;;;1.70;;
62024;SDS011;47978;49.118;12.146;2024-03-23T12:48:04;4.90;;;3.53;;
62024;SDS011;47978;49.118;12.146;2024-03-23T12:52:07;5.22;;;3.58;;
62024;SDS011;47978;49.118;12.146;2024-03-23T12:56:08;5.35;;;3.33;;
62024;SDS011;47978;49.118;12.146;2024-03-23T13:00:12;7.22;;;3.53;;
62024;SDS011;47978;49.118;12.146;2024-03-23T13:04:13;3.42;;;2.53;;
62024;SDS011;47978;49.118;12.146;2024-03-23T13:08:15;12.80;;;4.25;;
62024;SDS011;47978;49.118;12.146;2024-03-23T13:12:16;6.97;;;3.60;;
62024;SDS011;47978;49.118;12.146;2024-03-23T13:16:17;9.05;;;4.00;;
62024;SDS011;47978;49.118;12.146;2024-03-23T13:20:17;6.63;;;3.20;;
62024;SDS011;47978;49.118;12.146;2024-03-23T13:24:20;5.13;;;3.03;;
62024;SDS011;47978;49.118;12.146;2024-03-23T13:28:22;9.18;;;3.72;;
62024;SDS011;47978;49.118;12.146;2024-03-23T13:32:23;5.43;;;2.90;;
62024;SDS011;47978;49.118;12.146;2024-03-23T13:36:23;11.65;;;3.97;;
62024;SDS011;47978;49.118;12.146;2024-03-23T13:40:25;9.15;;;4.50;;
62024;SDS011;47978;49.118;12.146;2024-03-23T13:44:26;7.68;;;4.20;;
62024;SDS011;47978;49.118;12.146;2024-03-23T13:48:27;6.72;;;3.50;;
62024;SDS011;47978;49.118;12.146;2024-03-23T13:52:28;7.22;;;3.28;;
62024;SDS011;47978;49.118;12.146;2024-03-23T13:56:29;4.88;;;3.25;;
62024;SDS011;47978;49.118;12.146;2024-03-23T14:00:30;8.90;;;3.92;;
62024;SDS011;47978;49.118;12.146;2024-03-23T14:04:31;9.40;;;3.60;;
62024;SDS011;47978;49.118;12.146;2024-03-23T14:08:31;8.65;;;4.03;;
62024;SDS011;47978;49.118;12.146;2024-03-23T14:12:33;7.40;;;4.10;;
62024;SDS011;47978;49.118;12.146;2024-03-23T14:16:34;9.02;;;4.07;;
62024;SDS011;47978;49.118;12.146;2024-03-23T14:20:34;11.10;;;3.78;;
62024;SDS011;47978;49.118;12.146;2024-03-23T14:24:35;7.25;;;3.38;;
62024;SDS011;47978;49.118;12.146;2024-03-23T14:28:37;8.35;;;3.40;;
62024;SDS011;47978;49.118;12.146;2024-03-23T14:32:37;13.98;;;4.35;;
62024;SDS011;47978;49.118;12.146;2024-03-23T14:36:38;9.32;;;3.67;;
62024;SDS011;47978;49.118;12.146;2024-03-23T14:40:39;7.47;;;3.78;;
62024;SDS011;47978;49.118;12.146;2024-03-23T14:44:41;4.57;;;3.13;;
62024;SDS011;47978;49.118;12.146;2024-03-23T14:48:41;7.72;;;3.17;;
62024;SDS011;47978;49.118;12.146;2024-03-23T14:52:43;7.63;;;3.55;;
62024;SDS011;47978;49.118;12.146;2024-03-23T14:56:44;7.78;;;3.30;;
62024;SDS011;47978;49.118;12.146;2024-03-23T15:00:46;21.10;;;6.28;;
62024;SDS011;47978;49.118;12.146;2024-03-23T15:04:47;11.55;;;5.38;;
62024;SDS011;47978;49.118;12.146;2024-03-23T15:08:47;15.73;;;4.28;;
62024;SDS011;47978;49.118;12.146;2024-03-23T15:12:48;12.23;;;4.65;;
62024;SDS011;47978;49.118;12.146;2024-03-23T15:16:50;11.88;;;5.22;;
62024;SDS011;47978;49.118;12.146;2024-03-23T15:20:53;7.18;;;3.55;;
62024;SDS011;47978;49.118;12.146;2024-03-23T15:24:54;10.07;;;4.88;;
62024;SDS011;47978;49.118;12.146;2024-03-23T15:28:55;8.13;;;4.10;;
62024;SDS011;47978;49.118;12.146;2024-03-23T15:32:57;9.15;;;4.30;;
62024;SDS011;47978;49.118;12.146;2024-03-23T15:36:57;7.72;;;3.60;;
62024;SDS011;47978;49.118;12.146;2024-03-23T15:40:58;8.60;;;3.38;;
62024;SDS011;47978;49.118;12.146;2024-03-23T15:44:59;6.82;;;3.03;;
62024;SDS011;47978;49.118;12.146;2024-03-23T15:49:01;8.30;;;4.18;;
62024;SDS011;47978;49.118;12.146;2024-03-23T15:53:01;13.30;;;4.63;;
62024;SDS011;47978;49.118;12.146;2024-03-23T15:57:02;13.07;;;3.90;;
62024;SDS011;47978;49.118;12.146;2024-03-23T16:01:03;12.18;;;4.68;;
62024;SDS011;47978;49.118;12.146;2024-03-23T16:05:06;13.95;;;5.20;;
62024;SDS011;47978;49.118;12.146;2024-03-23T16:09:07;12.65;;;4.07;;
62024;SDS011;47978;49.118;12.146;2024-03-23T16:13:07;7.78;;;5.22;;
62024;SDS011;47978;49.118;12.146;2024-03-23T16:17:08;11.95;;;4.78;;
62024;SDS011;47978;49.118;12.146;2024-03-23T16:21:10;11.05;;;4.07;;
62024;SDS011;47978;49.118;12.146;2024-03-23T16:25:11;6.13;;;3.57;;
62024;SDS011;47978;49.118;12.146;2024-03-23T16:29:11;8.88;;;4.07;;
62024;SDS011;47978;49.118;12.146;2024-03-23T16:33:12;9.75;;;4.35;;
62024;SDS011;47978;49.118;12.146;2024-03-23T16:37:14;7.25;;;4.43;;
62024;SDS011;47978;49.118;12.146;2024-03-23T16:41:15;7.38;;;3.92;;
62024;SDS011;47978;49.118;12.146;2024-03-23T16:45:15;7.38;;;3.00;;
62024;SDS011;47978;49.118;12.146;2024-03-23T16:49:17;5.65;;;3.10;;
62024;SDS011;47978;49.118;12.146;2024-03-23T16:53:19;5.55;;;3.75;;
62024;SDS011;47978;49.118;12.146;2024-03-23T16:57:20;10.77;;;4.63;;
62024;SDS011;47978;49.118;12.146;2024-03-23T17:01:20;10.32;;;6.15;;
62024;SDS011;47978;49.118;12.146;2024-03-23T17:05:21;8.93;;;4.03;;
62024;SDS011;47978;49.118;12.146;2024-03-23T17:09:23;9.27;;;5.53;;
62024;SDS011;47978;49.118;12.146;2024-03-23T17:13:23;11.70;;;5.32;;
62024;SDS011;47978;49.118;12.146;2024-03-23T17:17:24;12.70;;;6.07;;
62024;SDS011;47978;49.118;12.146;2024-03-23T17:21:27;13.82;;;6.35;;
62024;SDS011;47978;49.118;12.146;2024-03-23T17:25:29;11.13;;;5.72;;
62024;SDS011;47978;49.118;12.146;2024-03-23T17:29:29;12.23;;;5.30;;
62024;SDS011;47978;49.118;12.146;2024-03-23T17:33:30;8.25;;;5.05;;
62024;SDS011;47978;49.118;12.146;2024-03-23T17:37:30;10.68;;;4.80;;
62024;SDS011;47978;49.118;12.146;2024-03-23T17:41:32;10.85;;;5.60;;
62024;SDS011;47978;49.118;12.146;2024-03-23T17:45:33;13.07;;;5.50;;
62024;SDS011;47978;49.118;12.146;2024-03-23T17:49:33;15.30;;;8.35;;
62024;SDS011;47978;49.118;12.146;2024-03-23T17:53:37;7.00;;;4.72;;
62024;SDS011;47978;49.118;12.146;2024-03-23T17:57:40;7.97;;;3.97;;
62024;SDS011;47978;49.118;12.146;2024-03-23T18:01:40;8.73;;;4.65;;
62024;SDS011;47978;49.118;12.146;2024-03-23T18:05:41;9.07;;;4.53;;
62024;SDS011;47978;49.118;12.146;2024-03-23T18:09:41;12.32;;;6.80;;
62024;SDS011;47978;49.118;12.146;2024-03-23T18:13:43;11.52;;;7.25;;
62024;SDS011;47978;49.118;12.146;2024-03-23T18:17:44;12.10;;;6.85;;
62024;SDS011;47978;49.118;12.146;2024-03-23T18:21:44;10.80;;;5.97;;
62024;SDS011;47978;49.118;12.146;2024-03-23T18:25:50;9.52;;;6.15;;
62024;SDS011;47978;49.118;12.146;2024-03-23T18:29:52;25.92;;;10.80;;
62024;SDS011;47978;49.118;12.146;2024-03-23T18:33:53;19.83;;;8.88;;
62024;SDS011;47978;49.118;12.146;2024-03-23T18:37:53;36.63;;;15.52;;
62024;SDS011;47978;49.118;12.146;2024-03-23T18:41:54;17.02;;;7.43;;
62024;SDS011;47978;49.118;12.146;2024-03-23T18:45:56;11.18;;;5.55;;
62024;SDS011;47978;49.118;12.146;2024-03-23T18:49:56;16.42;;;7.32;;
62024;SDS011;47978;49.118;12.146;2024-03-23T18:53:57;9.85;;;4.65;;
62024;SDS011;47978;49.118;12.146;2024-03-23T18:57:59;9.10;;;4.38;;
62024;SDS011;47978;49.118;12.146;2024-03-23T19:02:01;16.05;;;7.10;;
62024;SDS011;47978;49.118;12.146;2024-03-23T19:06:02;25.05;;;12.15;;
62024;SDS011;47978;49.118;12.146;2024-03-23T19:10:03;12.55;;;4.80;;
62024;SDS011;47978;49.118;12.146;2024-03-23T19:14:04;25.98;;;13.50;;
62024;SDS011;47978;49.118;12.146;2024-03-23T19:18:06;18.33;;;9.90;;
62024;SDS011;47978;49.118;12.146;2024-03-23T19:22:06;19.60;;;11.38;;
62024;SDS011;47978;49.118;12.146;2024-03-23T19:26:07;26.08;;;12.23;;
62024;SDS011;47978;49.118;12.146;2024-03-23T19:30:08;52.80;;;21.38;;
62024;SDS011;47978;49.118;12.146;2024-03-23T19:34:10;45.55;;;18.83;;
62024;SDS011;47978;49.118;12.146;2024-03-23T19:38:10;14.50;;;6.68;;
62024;SDS011;47978;49.118;12.146;2024-03-23T19:42:11;8.98;;;5.50;;
62024;SDS011;47978;49.118;12.146;2024-03-23T19:46:12;7.93;;;4.15;;
62024;SDS011;47978;49.118;12.146;2024-03-23T19:50:13;8.70;;;4.03;;
62024;SDS011;47978;49.118;12.146;2024-03-23T19:54:14;4.85;;;2.85;;
62024;SDS011;47978;49.118;12.146;2024-03-23T19:58:15;5.22;;;3.10;;
62024;SDS011;47978;49.118;12.146;2024-03-23T20:02:15;9.40;;;3.28;;
62024;SDS011;47978;49.118;12.146;2024-03-23T20:06:18;9.77;;;4.75;;
62024;SDS011;47978;49.118;12.146;2024-03-23T20:10:18;10.82;;;6.40;;
62024;SDS011;47978;49.118;12.146;2024-03-23T20:14:19;52.05;;;19.85;;
62024;SDS011;47978;49.118;12.146;2024-03-23T20:18:20;29.38;;;12.27;;
62024;SDS011;47978;49.118;12.146;2024-03-23T20:22:22;23.83;;;10.25;;
62024;SDS011;47978;49.118;12.146;2024-03-23T20:26:22;30.25;;;11.38;;
62024;SDS011;47978;49.118;12.146;2024-03-23T20:30:23;28.73;;;12.02;;
62024;SDS011;47978;49.118;12.146;2024-03-23T20:34:23;15.55;;;6.53;;
62024;SDS011;47978;49.118;12.146;2024-03-23T20:38:25;5.60;;;2.92;;
62024;SDS011;47978;49.118;12.146;2024-03-23T20:42:26;6.07;;;3.15;;
62024;SDS011;47978;49.118;12.146;2024-03-23T20:46:27;1.92;;;1.50;;
62024;SDS011;47978;49.118;12.146;2024-03-23T20:50:27;4.97;;;2.53;;
62024;SDS011;47978;49.118;12.146;2024-03-23T20:54:29;8.85;;;3.00;;
62024;SDS011;47978;49.118;12.146;2024-03-23T20:58:31;9.05;;;2.90;;
62024;SDS011;47978;49.118;12.146;2024-03-23T21:02:32;5.32;;;2.35;;
62024;SDS011;47978;49.118;12.146;2024-03-23T21:06:32;5.35;;;2.78;;
62024;SDS011;47978;49.118;12.146;2024-03-23T21:10:34;6.55;;;2.22;;
62024;SDS011;47978;49.118;12.146;2024-03-23T21:14:35;5.47;;;3.22;;
62024;SDS011;47978;49.118;12.146;2024-03-23T21:18:35;6.97;;;2.42;;
62024;SDS011;47978;49.118;12.146;2024-03-23T21:22:36;3.17;;;1.65;;
62024;SDS011;47978;49.118;12.146;2024-03-23T21:26:38;8.15;;;3.05;;
62024;SDS011;47978;49.118;12.146;2024-03-23T21:30:39;6.82;;;3.10;;
62024;SDS011;47978;49.118;12.146;2024-03-23T21:34:39;8.25;;;3.95;;
62024;SDS011;47978;49.118;12.146;2024-03-23T21:38:40;7.10;;;2.38;;
62024;SDS011;47978;49.118;12.146;2024-03-23T21:42:42;7.07;;;3.60;;
62024;SDS011;47978;49.118;12.146;2024-03-23T21:46:42;5.75;;;2.80;;
62024;SDS011;47978;49.118;12.146;2024-03-23T21:50:43;6.32;;;2.40;;
62024;SDS011;47978;49.118;12.146;2024-03-23T21:54:43;5.43;;;2.25;;
62024;SDS011;47978;49.118;12.146;2024-03-23T21:58:45;3.22;;;2.28;;
62024;SDS011;47978;49.118;12.146;2024-03-23T22:02:46;3.30;;;2.22;;
62024;SDS011;47978;49.118;12.146;2024-03-23T22:06:46;7.15;;;2.75;;
62024;SDS011;47978;49.118;12.146;2024-03-23T22:10:47;4.15;;;2.53;;
62024;SDS011;47978;49.118;12.146;2024-03-23T22:14:49;4.50;;;2.95;;
62024;SDS011;47978;49.118;12.146;2024-03-23T22:18:50;3.75;;;2.50;;
62024;SDS011;47978;49.118;12.146;2024-03-23T22:22:51;4.13;;;1.92;;
62024;SDS011;47978;49.118;12.146;2024-03-23T22:26:51;4.30;;;2.30;;
62024;SDS011;47978;49.118;12.146;2024-03-23T22:30:56;6.85;;;2.70;;
62024;SDS011;47978;49.118;12.146;2024-03-23T22:34:58;3.25;;;2.10;;
62024;SDS011;47978;49.118;12.146;2024-03-23T22:38:59;4.70;;;2.55;;
62024;SDS011;47978;49.118;12.146;2024-03-23T22:42:59;3.60;;;2.20;;
62024;SDS011;47978;49.118;12.146;2024-03-23T22:47:01;4.93;;;2.22;;
62024;SDS011;47978;49.118;12.146;2024-03-23T22:51:02;4.13;;;2.05;;
62024;SDS011;47978;49.118;12.146;2024-03-23T22:55:04;6.32;;;2.45;;
62024;SDS011;47978;49.118;12.146;2024-03-23T22:59:05;5.13;;;2.35;;
62024;SDS011;47978;49.118;12.146;2024-03-23T23:03:07;4.65;;;2.28;;
62024;SDS011;47978;49.118;12.146;2024-03-23T23:07:08;3.92;;;2.38;;
62024;SDS011;47978;49.118;12.146;2024-03-23T23:11:09;4.10;;;1.95;;
62024;SDS011;47978;49.118;12.146;2024-03-23T23:15:09;3.38;;;2.22;;
62024;SDS011;47978;49.118;12.146;2024-03-23T23:19:11;11.90;;;1.75;;
62024;SDS011;47978;49.118;12.146;2024-03-23T23:23:12;3.30;;;2.20;;
62024;SDS011;47978;49.118;12.146;2024-03-23T23:27:13;5.07;;;2.85;;
62024;SDS011;47978;49.118;12.146;2024-03-23T23:31:14;5.45;;;2.75;;
62024;SDS011;47978;49.118;12.146;2024-03-23T23:35:16;3.03;;;1.95;;
62024;SDS011;47978;49.118;12.146;2024-03-23T23:39:16;4.40;;;2.30;;
62024;SDS011;47978;49.118;12.146;2024-03-23T23:43:17;6.20;;;2.78;;
62024;SDS011;47978;49.118;12.146;2024-03-23T23:47:18;5.30;;;2.65;;
62024;SDS011;47978;49.118;12.146;2024-03-23T23:51:20;5.30;;;2.95;;
62024;SDS011;47978;49.118;12.146;2024-03-23T23:55:21;4.70;;;2.30;;
62024;SDS011;47978;49.118;12.146;2024-03-23T23:59:21;5.00;;;2.78;;
